createdAt,value
2018-06-18T00:00:27.330Z,3.90
2018-06-18T00:02:55.747Z,3.47
2018-06-18T00:05:24.201Z,3.70
2018-06-18T00:07:52.665Z,3.43
2018-06-18T00:10:21.064Z,4.73
2018-06-18T00:12:49.498Z,3.70
2018-06-18T00:15:17.910Z,3.20
2018-06-18T00:17:46.333Z,3.60
2018-06-18T00:20:14.436Z,3.90
2018-06-18T00:22:42.862Z,4.13
2018-06-18T00:25:11.272Z,3.40
2018-06-18T00:27:39.695Z,3.50
2018-06-18T00:30:08.119Z,4.10
2018-06-18T00:32:36.564Z,3.80
2018-06-18T00:35:04.989Z,3.57
2018-06-18T00:37:33.448Z,3.50
2018-06-18T00:40:01.547Z,4.10
2018-06-18T00:42:29.966Z,4.10
2018-06-18T00:44:58.368Z,3.90
2018-06-18T00:47:26.460Z,3.70
2018-06-18T00:49:54.890Z,3.60
2018-06-18T00:52:23.293Z,3.40
2018-06-18T00:54:51.731Z,3.40
2018-06-18T00:57:20.148Z,4.10
2018-06-18T00:59:48.260Z,3.77
2018-06-18T01:02:16.676Z,4.17
2018-06-18T01:04:45.092Z,4.07
2018-06-18T01:07:13.512Z,4.53
2018-06-18T01:09:41.941Z,4.03
2018-06-18T01:12:10.025Z,3.57
2018-06-18T01:14:38.437Z,4.23
2018-06-18T01:17:06.858Z,3.40
2018-06-18T01:19:34.989Z,4.37
2018-06-18T01:22:03.411Z,4.27
2018-06-18T01:24:37.101Z,3.43
2018-06-18T01:27:05.525Z,3.77
2018-06-18T01:29:33.980Z,3.50
2018-06-18T01:32:02.388Z,3.53
2018-06-18T01:34:30.801Z,3.80
2018-06-18T01:36:59.203Z,3.30
2018-06-18T01:39:27.303Z,4.20
2018-06-18T01:41:55.700Z,3.23
2018-06-18T01:44:24.120Z,3.53
2018-06-18T01:46:52.213Z,3.80
2018-06-18T01:49:20.617Z,3.40
2018-06-18T01:51:49.049Z,3.30
2018-06-18T01:54:17.151Z,3.80
2018-06-18T01:56:45.570Z,3.30
2018-06-18T01:59:13.968Z,3.20
2018-06-18T02:01:42.461Z,3.83
2018-06-18T02:04:10.550Z,3.30
2018-06-18T02:06:38.969Z,4.47
2018-06-18T02:09:10.809Z,3.50
2018-06-18T02:11:39.253Z,4.10
2018-06-18T02:14:08.000Z,4.03
2018-06-18T02:16:36.417Z,3.30
2018-06-18T02:19:04.511Z,3.50
2018-06-18T02:21:33.133Z,3.87
2018-06-18T02:24:01.536Z,4.37
2018-06-18T02:26:29.656Z,4.40
2018-06-18T02:29:03.342Z,3.60
2018-06-18T02:31:37.100Z,4.10
2018-06-18T02:34:10.876Z,3.30
2018-06-18T02:36:44.538Z,4.13
2018-06-18T02:39:14.605Z,4.73
2018-06-18T02:41:44.217Z,4.07
2018-06-18T02:44:12.992Z,3.70
2018-06-18T02:46:41.694Z,4.27
2018-06-18T02:49:10.130Z,4.00
2018-06-18T02:51:38.677Z,4.30
2018-06-18T02:54:08.237Z,4.37
2018-06-18T02:56:46.145Z,5.43
2018-06-18T02:59:14.549Z,4.20
2018-06-18T03:01:42.680Z,4.93
2018-06-18T03:04:11.098Z,4.80
2018-06-18T03:06:39.203Z,5.13
2018-06-18T03:09:09.504Z,4.40
2018-06-18T03:11:37.593Z,4.30
2018-06-18T03:14:06.532Z,4.70
2018-06-18T03:16:35.100Z,4.10
2018-06-18T03:19:08.829Z,4.70
2018-06-18T03:21:42.543Z,4.57
2018-06-18T03:24:13.145Z,4.00
2018-06-18T03:26:46.857Z,4.50
2018-06-18T03:29:17.288Z,4.83
2018-06-18T03:31:46.172Z,4.87
2018-06-18T03:34:14.632Z,4.10
2018-06-18T03:36:44.081Z,4.30
2018-06-18T03:39:13.967Z,4.60
2018-06-18T03:41:47.504Z,4.40
2018-06-18T03:44:26.037Z,5.07
2018-06-18T03:46:55.209Z,5.37
2018-06-18T03:49:23.621Z,4.50
2018-06-18T03:51:52.032Z,5.03
2018-06-18T03:54:20.469Z,4.77
2018-06-18T03:56:48.866Z,5.40
2018-06-18T03:59:17.284Z,5.00
2018-06-18T04:02:14.844Z,5.97
2018-06-18T04:04:56.780Z,5.33
2018-06-18T04:07:38.996Z,6.40
2018-06-18T04:10:12.809Z,6.60
2018-06-18T04:12:41.273Z,5.40
2018-06-18T04:15:09.752Z,5.30
2018-06-18T04:17:38.160Z,5.13
2018-06-18T04:20:07.113Z,4.27
2018-06-18T04:22:35.544Z,4.07
2018-06-18T04:25:04.009Z,5.03
2018-06-18T04:27:32.456Z,4.63
2018-06-18T04:30:00.869Z,4.33
2018-06-18T04:32:29.272Z,3.97
2018-06-18T04:34:59.428Z,4.87
2018-06-18T04:37:27.854Z,4.47
2018-06-18T04:39:55.964Z,4.80
2018-06-18T04:42:29.680Z,3.97
2018-06-18T04:45:03.533Z,4.30
2018-06-18T04:47:37.203Z,4.83
2018-06-18T04:50:10.997Z,4.10
2018-06-18T04:52:39.408Z,4.60
2018-06-18T04:55:07.523Z,4.20
2018-06-18T04:57:35.952Z,4.40
2018-06-18T05:01:29.124Z,4.43
2018-06-18T05:03:57.227Z,4.73
2018-06-18T05:06:27.149Z,4.60
2018-06-18T05:09:17.333Z,4.40
2018-06-18T05:11:45.744Z,4.30
2018-06-18T05:14:14.144Z,4.43
2018-06-18T05:16:42.671Z,5.30
2018-06-18T05:19:11.089Z,4.80
2018-06-18T05:21:39.505Z,4.50
2018-06-18T05:24:07.921Z,4.73
2018-06-18T05:26:39.149Z,3.87
2018-06-18T05:29:07.561Z,3.90
2018-06-18T05:31:35.973Z,4.13
2018-06-18T05:34:04.392Z,4.77
2018-06-18T05:36:32.795Z,4.17
2018-06-18T05:39:01.217Z,3.87
2018-06-18T05:41:29.627Z,3.90
2018-06-18T05:43:58.049Z,4.10
2018-06-18T05:46:26.137Z,3.77
2018-06-18T05:48:54.600Z,4.50
2018-06-18T05:51:22.696Z,3.23
2018-06-18T05:53:51.124Z,4.27
2018-06-18T05:56:19.559Z,3.10
2018-06-18T05:58:47.982Z,3.30
2018-06-18T06:01:16.401Z,4.20
2018-06-18T06:03:44.825Z,4.30
2018-06-18T06:06:13.348Z,3.70
2018-06-18T06:08:41.797Z,5.13
2018-06-18T06:11:10.201Z,3.87
2018-06-18T06:13:38.302Z,3.53
2018-06-18T06:16:06.721Z,3.93
2018-06-18T06:18:35.130Z,4.07
2018-06-18T06:21:06.468Z,3.63
2018-06-18T06:23:34.572Z,3.70
2018-06-18T06:26:03.026Z,3.23
2018-06-18T06:28:31.120Z,3.80
2018-06-18T06:30:59.531Z,4.27
2018-06-18T06:33:28.140Z,4.57
2018-06-18T06:35:58.193Z,3.63
2018-06-18T06:38:26.613Z,3.97
2018-06-18T06:40:55.035Z,4.00
2018-06-18T06:43:23.471Z,3.63
2018-06-18T06:45:51.884Z,3.43
2018-06-18T06:48:19.972Z,3.63
2018-06-18T06:50:48.410Z,3.83
2018-06-18T06:53:16.813Z,3.00
2018-06-18T06:55:44.917Z,4.87
2018-06-18T06:58:13.332Z,3.33
2018-06-18T07:00:41.774Z,4.13
2018-06-18T07:03:10.190Z,3.63
2018-06-18T07:05:38.629Z,3.13
2018-06-18T07:08:07.070Z,3.37
2018-06-18T07:10:35.501Z,2.87
2018-06-18T07:13:03.938Z,3.33
2018-06-18T07:15:32.364Z,3.57
2018-06-18T07:18:00.942Z,4.13
2018-06-18T07:20:29.353Z,3.43
2018-06-18T07:22:57.780Z,3.10
2018-06-18T07:25:25.885Z,3.93
2018-06-18T07:27:54.341Z,3.10
2018-06-18T07:30:22.819Z,2.80
2018-06-18T07:32:50.876Z,3.57
2018-06-18T07:35:19.289Z,3.57
2018-06-18T07:37:47.712Z,3.40
2018-06-18T07:40:16.161Z,3.40
2018-06-18T07:42:44.598Z,3.40
2018-06-18T07:45:13.000Z,4.27
2018-06-18T07:47:41.440Z,3.63
2018-06-18T07:50:09.860Z,3.33
2018-06-18T07:52:38.280Z,3.50
2018-06-18T07:55:06.708Z,3.60
2018-06-18T07:57:35.202Z,4.00
2018-06-18T08:00:03.645Z,3.27
2018-06-18T08:02:32.111Z,3.73
2018-06-18T08:05:00.524Z,3.43
2018-06-18T08:07:28.963Z,2.93
2018-06-18T08:09:57.430Z,3.90
2018-06-18T08:12:25.819Z,3.37
2018-06-18T08:14:54.248Z,3.20
2018-06-18T08:17:22.661Z,3.80
2018-06-18T08:19:51.084Z,3.77
2018-06-18T08:22:19.673Z,3.10
2018-06-18T08:24:49.601Z,3.20
2018-06-18T08:27:18.078Z,3.20
2018-06-18T08:29:46.573Z,2.80
2018-06-18T08:32:14.679Z,3.23
2018-06-18T08:34:43.372Z,3.47
2018-06-18T08:37:11.785Z,2.80
2018-06-18T08:39:40.281Z,3.87
2018-06-18T08:42:08.732Z,3.27
2018-06-18T08:44:37.136Z,3.50
2018-06-18T08:47:05.945Z,3.33
2018-06-18T08:49:38.616Z,2.87
2018-06-18T08:52:12.091Z,3.57
2018-06-18T08:54:46.001Z,3.40
2018-06-18T08:57:19.921Z,2.57
2018-06-18T08:59:53.488Z,2.73
2018-06-18T09:02:27.289Z,2.50
2018-06-18T09:05:01.030Z,2.77
2018-06-18T09:07:31.356Z,2.67
2018-06-18T09:10:00.533Z,2.70
2018-06-18T09:12:29.044Z,2.50
2018-06-18T09:14:57.457Z,2.97
2018-06-18T09:17:25.877Z,2.57
2018-06-18T09:19:54.292Z,3.20
2018-06-18T09:22:22.709Z,2.73
2018-06-18T09:24:51.123Z,3.50
2018-06-18T09:27:19.537Z,2.07
2018-06-18T09:29:53.169Z,2.53
2018-06-18T09:32:21.822Z,2.40
2018-06-18T09:34:50.025Z,3.07
2018-06-18T09:37:18.454Z,2.53
2018-06-18T09:39:46.868Z,2.90
2018-06-18T09:42:15.268Z,2.60
2018-06-18T09:44:43.705Z,2.50
2018-06-18T09:47:12.112Z,2.87
2018-06-18T09:49:45.865Z,2.40
2018-06-18T09:52:19.696Z,2.90
2018-06-18T09:54:53.354Z,2.30
2018-06-18T09:57:27.087Z,2.53
2018-06-18T10:00:00.669Z,3.10
2018-06-18T10:02:29.322Z,2.80
2018-06-18T10:04:59.238Z,2.43
2018-06-18T10:07:27.665Z,3.27
2018-06-18T10:09:56.699Z,3.60
2018-06-18T10:12:25.356Z,2.73
2018-06-18T10:14:53.797Z,2.90
2018-06-18T10:17:22.204Z,2.67
2018-06-18T10:19:51.747Z,2.37
2018-06-18T10:22:20.230Z,2.10
2018-06-18T10:24:48.716Z,2.40
2018-06-18T10:27:17.152Z,2.23
2018-06-18T10:29:45.681Z,2.60
2018-06-18T10:32:19.099Z,2.73
2018-06-18T10:35:51.485Z,2.73
2018-06-18T10:38:25.328Z,2.17
2018-06-18T10:40:59.110Z,2.60
2018-06-18T10:43:35.425Z,1.77
2018-06-18T10:46:03.548Z,1.87
2018-06-18T10:48:32.045Z,2.27
2018-06-18T10:51:00.473Z,1.70
2018-06-18T10:53:28.888Z,1.47
2018-06-18T10:55:57.384Z,1.70
2018-06-18T10:58:25.865Z,1.67
2018-06-18T11:01:00.572Z,2.13
2018-06-18T11:03:29.010Z,2.13
2018-06-18T11:06:02.728Z,1.33
2018-06-18T11:08:31.181Z,1.93
2018-06-18T11:10:59.592Z,2.83
2018-06-18T11:13:28.357Z,1.40
2018-06-18T11:15:58.290Z,1.97
2018-06-18T11:18:31.889Z,1.60
2018-06-18T11:21:05.545Z,1.40
2018-06-18T11:23:38.952Z,1.73
2018-06-18T11:26:12.516Z,2.00
2018-06-18T11:28:41.024Z,1.97
2018-06-18T11:31:09.442Z,2.20
2018-06-18T11:33:37.872Z,1.53
2018-06-18T11:36:06.533Z,1.57
2018-06-18T11:38:34.961Z,1.70
2018-06-18T11:41:03.404Z,1.80
2018-06-18T11:43:31.850Z,1.80
2018-06-18T11:46:00.274Z,1.67
2018-06-18T11:48:28.773Z,1.50
2018-06-18T11:50:57.225Z,2.07
2018-06-18T11:53:25.670Z,1.93
2018-06-18T11:55:54.529Z,2.73
2018-06-18T11:58:28.348Z,1.67
2018-06-18T12:01:02.220Z,2.20
2018-06-18T12:03:35.893Z,2.07
2018-06-18T12:06:09.697Z,2.77
2018-06-18T12:08:43.506Z,2.50
2018-06-18T12:11:11.977Z,3.10
2018-06-18T12:13:40.416Z,2.10
2018-06-18T12:16:08.825Z,2.80
2018-06-18T12:18:37.266Z,1.70
2018-06-18T12:21:05.720Z,1.60
2018-06-18T12:23:34.140Z,1.43
2018-06-18T12:26:02.563Z,1.40
2018-06-18T12:28:30.989Z,1.60
2018-06-18T12:30:59.421Z,1.50
2018-06-18T12:33:27.529Z,1.80
2018-06-18T12:35:56.021Z,2.10
2018-06-18T12:38:24.729Z,2.03
2018-06-18T12:40:53.500Z,2.93
2018-06-18T12:43:23.721Z,2.20
2018-06-18T12:45:59.012Z,1.70
2018-06-18T12:48:32.933Z,2.33
2018-06-18T12:51:06.633Z,2.23
2018-06-18T12:53:40.396Z,2.07
2018-06-18T12:56:14.225Z,1.80
2018-06-18T12:58:42.684Z,1.67
2018-06-18T13:01:12.733Z,1.77
2018-06-18T13:03:41.156Z,2.40
2018-06-18T13:06:09.575Z,1.57
2018-06-18T13:08:38.742Z,2.13
2018-06-18T13:11:07.217Z,1.77
2018-06-18T13:13:35.664Z,1.60
2018-06-18T13:16:04.144Z,2.17
2018-06-18T13:18:32.805Z,1.80
2018-06-18T13:21:01.234Z,1.53
2018-06-18T13:23:29.720Z,1.73
2018-06-18T13:25:58.125Z,2.00
2018-06-18T13:28:26.605Z,2.17
2018-06-18T13:30:54.744Z,2.03
2018-06-18T13:33:24.132Z,1.70
2018-06-18T13:35:52.637Z,2.23
2018-06-18T13:38:26.420Z,1.77
2018-06-18T13:40:59.961Z,2.17
2018-06-18T13:43:34.291Z,1.93
2018-06-18T13:46:08.042Z,2.00
2018-06-18T13:48:41.741Z,2.67
2018-06-18T13:51:10.481Z,2.80
2018-06-18T13:53:38.897Z,2.07
2018-06-18T13:56:07.318Z,2.03
2018-06-18T13:58:36.175Z,2.90
2018-06-18T14:01:04.594Z,2.20
2018-06-18T14:03:33.027Z,1.87
2018-06-18T14:06:01.437Z,1.83
2018-06-18T14:08:29.612Z,2.00
2018-06-18T14:10:58.412Z,2.60
2018-06-18T14:13:26.874Z,1.80
2018-06-18T14:15:55.297Z,2.00
2018-06-18T14:18:23.721Z,2.00
2018-06-18T14:20:52.153Z,2.57
2018-06-18T14:23:20.565Z,2.27
2018-06-18T14:25:49.099Z,2.27
2018-06-18T14:28:17.534Z,2.00
2018-06-18T14:30:51.261Z,2.07
2018-06-18T14:33:24.923Z,3.23
2018-06-18T14:35:58.596Z,2.50
2018-06-18T14:38:32.348Z,3.23
2018-06-18T14:41:00.810Z,1.90
2018-06-18T14:43:29.237Z,2.17
2018-06-18T14:45:57.762Z,4.00
2018-06-18T14:48:26.237Z,3.10
2018-06-18T14:50:54.587Z,2.90
2018-06-18T14:53:23.138Z,2.97
2018-06-18T14:56:11.270Z,2.87
2018-06-18T14:58:40.181Z,2.90
2018-06-18T15:01:08.586Z,1.90
2018-06-18T15:03:37.057Z,2.13
2018-06-18T15:06:05.457Z,1.97
2018-06-18T15:08:33.893Z,1.70
2018-06-18T15:11:02.305Z,2.03
2018-06-18T15:13:30.744Z,1.97
2018-06-18T15:16:04.631Z,1.93
2018-06-18T15:18:33.065Z,2.17
2018-06-18T15:21:02.890Z,2.10
2018-06-18T15:23:31.346Z,2.47
2018-06-18T15:25:59.772Z,2.03
2018-06-18T15:28:28.186Z,2.00
2018-06-18T15:30:56.609Z,1.70
2018-06-18T15:33:25.035Z,1.60
2018-06-18T15:35:53.472Z,2.80
2018-06-18T15:38:21.972Z,2.53
2018-06-18T15:40:50.321Z,1.77
2018-06-18T15:43:18.724Z,1.80
2018-06-18T15:45:46.835Z,2.57
2018-06-18T15:48:15.248Z,2.27
2018-06-18T15:50:43.684Z,2.10
2018-06-18T15:53:12.109Z,1.70
2018-06-18T15:55:40.565Z,2.60
2018-06-18T15:58:08.968Z,2.20
2018-06-18T16:00:37.417Z,2.20
2018-06-18T16:03:05.836Z,1.77
2018-06-18T16:05:34.268Z,1.63
2018-06-18T16:08:02.793Z,1.47
2018-06-18T16:10:31.213Z,2.00
2018-06-18T16:13:00.317Z,1.70
2018-06-18T16:15:28.740Z,2.10
2018-06-18T16:17:57.187Z,2.10
2018-06-18T16:20:25.597Z,1.90
2018-06-18T16:22:54.398Z,2.13
2018-06-18T16:25:22.829Z,2.30
2018-06-18T16:27:51.254Z,1.90
2018-06-18T16:30:19.677Z,2.00
2018-06-18T16:32:48.112Z,1.67
2018-06-18T16:35:16.543Z,1.77
2018-06-18T16:37:45.014Z,1.53
2018-06-18T16:40:13.444Z,2.00
2018-06-18T16:42:41.552Z,2.07
2018-06-18T16:45:10.041Z,2.03
2018-06-18T16:47:38.576Z,2.30
2018-06-18T16:50:07.024Z,1.27
2018-06-18T16:52:36.269Z,1.97
2018-06-18T16:55:04.821Z,2.23
2018-06-18T16:57:33.313Z,1.50
2018-06-18T17:00:01.785Z,1.80
2018-06-18T17:02:30.247Z,1.50
2018-06-18T17:04:58.736Z,2.33
2018-06-18T17:07:27.180Z,1.83
2018-06-18T17:09:55.746Z,2.20
2018-06-18T17:12:24.173Z,2.20
2018-06-18T17:14:52.680Z,2.27
2018-06-18T17:17:21.113Z,1.67
2018-06-18T17:19:49.550Z,1.70
2018-06-18T17:22:18.013Z,1.87
2018-06-18T17:24:46.431Z,2.20
2018-06-18T17:27:14.880Z,2.10
2018-06-18T17:29:43.340Z,2.10
2018-06-18T17:32:11.769Z,1.77
2018-06-18T17:34:40.248Z,1.50
2018-06-18T17:37:08.681Z,1.60
2018-06-18T17:39:37.110Z,1.93
2018-06-18T17:42:05.577Z,1.53
2018-06-18T17:44:35.017Z,1.63
2018-06-18T17:47:03.883Z,1.33
2018-06-18T17:49:32.664Z,2.10
2018-06-18T17:52:01.346Z,1.50
2018-06-18T17:54:30.192Z,1.63
2018-06-18T17:56:59.037Z,2.40
2018-06-18T17:59:28.109Z,2.10
2018-06-18T18:01:56.833Z,2.60
2018-06-18T18:04:25.784Z,2.27
2018-06-18T18:06:54.414Z,2.00
2018-06-18T18:09:23.311Z,1.90
2018-06-18T18:11:51.946Z,2.37
2018-06-18T18:14:20.595Z,2.20
2018-06-18T18:16:49.086Z,2.47
2018-06-18T18:19:17.533Z,2.27
2018-06-18T18:21:45.956Z,2.13
2018-06-18T18:24:14.429Z,2.03
2018-06-18T18:26:42.902Z,2.23
2018-06-18T18:29:11.348Z,2.13
2018-06-18T18:31:39.769Z,2.70
2018-06-18T18:34:08.205Z,2.53
2018-06-18T18:36:36.617Z,2.40
2018-06-18T18:39:07.822Z,2.20
2018-06-18T18:41:35.959Z,2.30
2018-06-18T18:44:04.437Z,2.10
2018-06-18T18:46:32.864Z,2.03
2018-06-18T18:49:01.285Z,1.77
2018-06-18T18:51:29.757Z,2.40
2018-06-18T18:53:58.439Z,2.10
2018-06-18T18:57:48.641Z,2.40
2018-06-18T19:00:17.064Z,2.37
2018-06-18T19:02:45.157Z,2.00
2018-06-18T19:05:13.595Z,2.60
2018-06-18T19:07:44.117Z,2.63
2018-06-18T19:10:18.841Z,2.57
2018-06-18T19:12:47.457Z,2.70
2018-06-18T19:15:15.944Z,4.70
2018-06-18T19:17:44.401Z,3.27
2018-06-18T19:20:14.084Z,2.63
2018-06-18T19:22:42.528Z,3.23
2018-06-18T19:25:11.050Z,3.17
2018-06-18T19:27:39.453Z,2.57
2018-06-18T19:30:08.238Z,2.93
2018-06-18T19:32:36.706Z,5.20
2018-06-18T19:35:05.331Z,3.60
2018-06-18T19:37:33.769Z,3.10
2018-06-18T19:40:02.226Z,4.10
2018-06-18T19:42:30.697Z,3.80
2018-06-18T19:44:59.179Z,3.67
2018-06-18T19:47:33.999Z,3.70
2018-06-18T19:50:02.508Z,3.43
2018-06-18T19:52:31.177Z,3.97
2018-06-18T19:55:02.767Z,3.60
2018-06-18T19:57:31.613Z,4.20
2018-06-18T20:00:00.115Z,3.50
2018-06-18T20:02:28.730Z,3.80
2018-06-18T20:04:57.165Z,3.90
2018-06-18T20:07:26.522Z,3.93
2018-06-18T20:09:55.060Z,4.23
2018-06-18T20:12:23.168Z,4.20
2018-06-18T20:14:51.643Z,4.87
2018-06-18T20:17:20.149Z,4.60
2018-06-18T20:19:48.616Z,4.30
2018-06-18T20:22:17.141Z,4.00
2018-06-18T20:24:46.488Z,4.90
2018-06-18T20:27:15.367Z,4.80
2018-06-18T20:29:43.854Z,5.07
2018-06-18T20:32:12.617Z,5.23
2018-06-18T20:34:41.189Z,5.03
2018-06-18T20:37:09.439Z,4.27
2018-06-18T20:39:37.984Z,5.60
2018-06-18T20:42:06.618Z,4.97
2018-06-18T20:44:35.160Z,4.33
2018-06-18T20:47:03.665Z,4.00
2018-06-18T20:49:32.165Z,3.77
2018-06-18T20:52:00.613Z,4.10
2018-06-18T20:54:29.101Z,4.70
2018-06-18T20:56:57.645Z,3.73
2018-06-18T20:59:25.732Z,4.57
2018-06-18T21:01:54.209Z,5.47
2018-06-18T21:04:22.656Z,3.87
2018-06-18T21:06:51.313Z,4.70
2018-06-18T21:09:19.827Z,4.60
2018-06-18T21:11:48.336Z,4.60
2018-06-18T21:14:16.798Z,4.77
2018-06-18T21:16:47.184Z,4.57
2018-06-18T21:19:16.033Z,4.67
2018-06-18T21:21:44.516Z,4.10
2018-06-18T21:24:12.981Z,4.20
2018-06-18T21:26:41.423Z,4.30
2018-06-18T21:29:10.084Z,3.67
2018-06-18T21:31:38.240Z,3.80
2018-06-18T21:34:06.709Z,3.87
2018-06-18T21:36:35.139Z,3.73
2018-06-18T21:39:04.641Z,4.40
2018-06-18T21:41:32.763Z,4.23
2018-06-18T21:44:01.318Z,3.90
2018-06-18T21:46:29.754Z,4.50
2018-06-18T21:48:58.267Z,4.07
2018-06-18T21:51:26.716Z,4.77
2018-06-18T21:53:55.168Z,4.60
2018-06-18T21:56:23.633Z,4.00
2018-06-18T21:58:52.267Z,4.40
2018-06-18T22:01:25.993Z,5.40
2018-06-18T22:03:54.441Z,4.40
2018-06-18T22:06:22.704Z,4.87
2018-06-18T22:08:50.887Z,4.60
2018-06-18T22:11:18.992Z,4.40
2018-06-18T22:13:47.425Z,4.80
2018-06-18T22:16:15.567Z,5.20
2018-06-18T22:18:43.968Z,5.37
2018-06-18T22:21:12.420Z,4.20
2018-06-18T22:23:40.897Z,5.70
2018-06-18T22:26:09.336Z,4.43
2018-06-18T22:28:39.985Z,4.87
2018-06-18T22:31:08.469Z,4.23
2018-06-18T22:33:36.941Z,4.50
2018-06-18T22:36:05.378Z,4.20
2018-06-18T22:38:33.543Z,4.97
2018-06-18T22:41:01.973Z,4.50
2018-06-18T22:43:30.421Z,4.83
2018-06-18T22:45:58.516Z,4.73
2018-06-18T22:48:26.969Z,5.90
2018-06-18T22:50:55.116Z,5.30
2018-06-18T22:53:23.549Z,5.60
2018-06-18T22:55:51.981Z,5.13
2018-06-18T22:58:20.389Z,5.27
2018-06-18T23:00:52.569Z,5.70
2018-06-18T23:03:20.967Z,6.63
2018-06-18T23:05:49.757Z,4.57
2018-06-18T23:08:18.236Z,5.40
2018-06-18T23:10:46.728Z,6.17
2018-06-18T23:13:16.213Z,5.50
2018-06-18T23:15:44.669Z,5.83
2018-06-18T23:18:13.084Z,6.00
2018-06-18T23:20:41.526Z,6.17
2018-06-18T23:23:09.921Z,6.40
2018-06-18T23:25:38.369Z,5.43
2018-06-18T23:28:06.785Z,5.97
2018-06-18T23:30:35.197Z,5.43
2018-06-18T23:33:03.676Z,6.30
2018-06-18T23:35:32.109Z,6.57
2018-06-18T23:38:00.596Z,6.43
2018-06-18T23:40:29.026Z,6.20
2018-06-18T23:42:57.122Z,5.47
2018-06-18T23:45:25.550Z,6.67
2018-06-18T23:47:54.005Z,6.53
2018-06-18T23:50:22.433Z,6.60
2018-06-18T23:52:50.576Z,6.30
2018-06-18T23:55:19.010Z,7.07
2018-06-18T23:57:47.597Z,7.13
